Yarmouth, Iowa
Current Conditions -  °F | °C
As of 8:15 PM on Sunday 25 Jan 2015 (Local Time) from KMPZ Reporting Station
Broken Clouds Broken Clouds  
Wind Chill: 15°   Ceiling: 4100
Heat Index: 25°   Visibility: 10mi
Dew Point: 20°   Wind: 12mph
Humidity: 81%   Direction: 360°N
Pressure: 30.07"   Gusts: NA
Location:  41.03°N, 91.32°W
Report Text: KMPZ 260215Z AUTO 36010KT 10SM BKN041 M04/M06 A3007 RMK AO2 T10371065
Loading
Personal Weather Stations






























Interactive Weather Map New forecast layout! Learn more

10-Day Weather Forecast

Advertisements
Track Severe Weather on mobile